sensor_id;sensor_type;location;lat;lon;timestamp;P1;durP1;ratioP1;P2;durP2;ratioP2
62957;SDS011;49056;48.352;10.926;2023-03-14T00:04:56;0.10;;;0.00;;
62957;SDS011;49056;48.352;10.926;2023-03-14T00:10:16;0.23;;;0.13;;
62957;SDS011;49056;48.352;10.926;2023-03-14T00:15:37;0.55;;;0.15;;
62957;SDS011;49056;48.352;10.926;2023-03-14T00:20:58;0.00;;;0.00;;
62957;SDS011;49056;48.352;10.926;2023-03-14T00:26:20;0.20;;;0.20;;
62957;SDS011;49056;48.352;10.926;2023-03-14T00:31:41;0.10;;;0.10;;
62957;SDS011;49056;48.352;10.926;2023-03-14T00:37:01;0.55;;;0.10;;
62957;SDS011;49056;48.352;10.926;2023-03-14T00:42:21;0.10;;;0.10;;
62957;SDS011;49056;48.352;10.926;2023-03-14T00:47:42;0.10;;;0.10;;
62957;SDS011;49056;48.352;10.926;2023-03-14T00:53:05;0.17;;;0.15;;
62957;SDS011;49056;48.352;10.926;2023-03-14T00:58:25;0.10;;;0.10;;
62957;SDS011;49056;48.352;10.926;2023-03-14T01:03:46;0.00;;;0.00;;
62957;SDS011;49056;48.352;10.926;2023-03-14T01:09:06;0.10;;;0.10;;
62957;SDS011;49056;48.352;10.926;2023-03-14T01:14:27;0.00;;;0.00;;
62957;SDS011;49056;48.352;10.926;2023-03-14T01:19:47;0.28;;;0.10;;
62957;SDS011;49056;48.352;10.926;2023-03-14T01:25:09;0.30;;;0.20;;
62957;SDS011;49056;48.352;10.926;2023-03-14T01:30:29;0.10;;;0.10;;
62957;SDS011;49056;48.352;10.926;2023-03-14T01:35:50;0.10;;;0.10;;
62957;SDS011;49056;48.352;10.926;2023-03-14T01:41:15;0.15;;;0.05;;
62957;SDS011;49056;48.352;10.926;2023-03-14T01:46:37;0.00;;;0.00;;
62957;SDS011;49056;48.352;10.926;2023-03-14T01:51:59;0.00;;;0.00;;
62957;SDS011;49056;48.352;10.926;2023-03-14T01:57:33;0.00;;;0.00;;
62957;SDS011;49056;48.352;10.926;2023-03-14T02:02:55;0.88;;;0.30;;
62957;SDS011;49056;48.352;10.926;2023-03-14T02:08:18;0.00;;;0.00;;
62957;SDS011;49056;48.352;10.926;2023-03-14T02:13:38;0.00;;;0.00;;
62957;SDS011;49056;48.352;10.926;2023-03-14T02:18:59;0.08;;;0.05;;
62957;SDS011;49056;48.352;10.926;2023-03-14T02:24:22;0.00;;;0.00;;
62957;SDS011;49056;48.352;10.926;2023-03-14T02:29:46;0.03;;;0.03;;
62957;SDS011;49056;48.352;10.926;2023-03-14T02:35:08;0.05;;;0.05;;
62957;SDS011;49056;48.352;10.926;2023-03-14T02:40:29;0.52;;;0.05;;
62957;SDS011;49056;48.352;10.926;2023-03-14T02:45:50;0.10;;;0.00;;
62957;SDS011;49056;48.352;10.926;2023-03-14T02:51:10;0.10;;;0.10;;
62957;SDS011;49056;48.352;10.926;2023-03-14T02:56:31;0.00;;;0.00;;
62957;SDS011;49056;48.352;10.926;2023-03-14T03:01:52;0.03;;;0.00;;
62957;SDS011;49056;48.352;10.926;2023-03-14T03:07:12;0.00;;;0.00;;
62957;SDS011;49056;48.352;10.926;2023-03-14T03:12:33;0.28;;;0.10;;
62957;SDS011;49056;48.352;10.926;2023-03-14T03:17:53;0.30;;;0.07;;
62957;SDS011;49056;48.352;10.926;2023-03-14T03:23:13;0.00;;;0.00;;
62957;SDS011;49056;48.352;10.926;2023-03-14T03:28:34;0.00;;;0.00;;
62957;SDS011;49056;48.352;10.926;2023-03-14T03:33:54;0.00;;;0.00;;
62957;SDS011;49056;48.352;10.926;2023-03-14T03:39:14;0.00;;;0.00;;
62957;SDS011;49056;48.352;10.926;2023-03-14T03:44:35;0.00;;;0.00;;
62957;SDS011;49056;48.352;10.926;2023-03-14T03:49:55;0.00;;;0.00;;
62957;SDS011;49056;48.352;10.926;2023-03-14T03:55:16;0.00;;;0.00;;
62957;SDS011;49056;48.352;10.926;2023-03-14T04:00:36;0.10;;;0.00;;
62957;SDS011;49056;48.352;10.926;2023-03-14T04:06:04;0.20;;;0.00;;
62957;SDS011;49056;48.352;10.926;2023-03-14T04:11:24;0.00;;;0.00;;
62957;SDS011;49056;48.352;10.926;2023-03-14T04:16:44;0.00;;;0.00;;
62957;SDS011;49056;48.352;10.926;2023-03-14T04:22:05;0.00;;;0.00;;
62957;SDS011;49056;48.352;10.926;2023-03-14T04:27:25;0.00;;;0.00;;
62957;SDS011;49056;48.352;10.926;2023-03-14T04:32:45;0.17;;;0.00;;
62957;SDS011;49056;48.352;10.926;2023-03-14T04:38:06;0.25;;;0.00;;
62957;SDS011;49056;48.352;10.926;2023-03-14T04:43:26;0.00;;;0.00;;
62957;SDS011;49056;48.352;10.926;2023-03-14T04:48:47;0.00;;;0.00;;
62957;SDS011;49056;48.352;10.926;2023-03-14T04:54:07;0.23;;;0.10;;
62957;SDS011;49056;48.352;10.926;2023-03-14T04:59:28;0.03;;;0.00;;
62957;SDS011;49056;48.352;10.926;2023-03-14T05:04:48;0.00;;;0.00;;
62957;SDS011;49056;48.352;10.926;2023-03-14T05:10:08;0.00;;;0.00;;
62957;SDS011;49056;48.352;10.926;2023-03-14T05:15:29;0.00;;;0.00;;
62957;SDS011;49056;48.352;10.926;2023-03-14T05:20:50;0.00;;;0.00;;
62957;SDS011;49056;48.352;10.926;2023-03-14T05:26:12;0.00;;;0.00;;
62957;SDS011;49056;48.352;10.926;2023-03-14T05:31:32;0.07;;;0.07;;
62957;SDS011;49056;48.352;10.926;2023-03-14T05:36:52;0.10;;;0.00;;
62957;SDS011;49056;48.352;10.926;2023-03-14T05:42:13;0.00;;;0.00;;
62957;SDS011;49056;48.352;10.926;2023-03-14T05:47:33;0.00;;;0.00;;
62957;SDS011;49056;48.352;10.926;2023-03-14T05:52:53;0.20;;;0.00;;
62957;SDS011;49056;48.352;10.926;2023-03-14T05:58:14;0.00;;;0.00;;
62957;SDS011;49056;48.352;10.926;2023-03-14T06:03:34;0.10;;;0.10;;
62957;SDS011;49056;48.352;10.926;2023-03-14T06:08:54;0.00;;;0.00;;
62957;SDS011;49056;48.352;10.926;2023-03-14T06:14:15;0.00;;;0.00;;
62957;SDS011;49056;48.352;10.926;2023-03-14T06:19:35;0.00;;;0.00;;
62957;SDS011;49056;48.352;10.926;2023-03-14T06:24:55;0.05;;;0.00;;
62957;SDS011;49056;48.352;10.926;2023-03-14T06:30:16;0.00;;;0.00;;
62957;SDS011;49056;48.352;10.926;2023-03-14T06:35:36;0.00;;;0.00;;
62957;SDS011;49056;48.352;10.926;2023-03-14T06:41:02;0.52;;;0.20;;
62957;SDS011;49056;48.352;10.926;2023-03-14T06:46:23;0.00;;;0.00;;
62957;SDS011;49056;48.352;10.926;2023-03-14T06:51:43;0.00;;;0.00;;
62957;SDS011;49056;48.352;10.926;2023-03-14T06:57:03;0.00;;;0.00;;
62957;SDS011;49056;48.352;10.926;2023-03-14T07:02:23;0.17;;;0.10;;
62957;SDS011;49056;48.352;10.926;2023-03-14T07:07:44;0.00;;;0.00;;
62957;SDS011;49056;48.352;10.926;2023-03-14T07:13:04;0.00;;;0.00;;
62957;SDS011;49056;48.352;10.926;2023-03-14T07:18:24;0.05;;;0.05;;
62957;SDS011;49056;48.352;10.926;2023-03-14T07:23:45;0.20;;;0.20;;
62957;SDS011;49056;48.352;10.926;2023-03-14T07:29:05;0.03;;;0.00;;
62957;SDS011;49056;48.352;10.926;2023-03-14T07:34:25;0.20;;;0.10;;
62957;SDS011;49056;48.352;10.926;2023-03-14T07:39:46;0.30;;;0.00;;
62957;SDS011;49056;48.352;10.926;2023-03-14T07:45:06;0.17;;;0.00;;
62957;SDS011;49056;48.352;10.926;2023-03-14T07:50:27;0.00;;;0.00;;
62957;SDS011;49056;48.352;10.926;2023-03-14T07:55:47;0.08;;;0.00;;
62957;SDS011;49056;48.352;10.926;2023-03-14T08:01:08;0.00;;;0.00;;
62957;SDS011;49056;48.352;10.926;2023-03-14T08:06:28;0.30;;;0.08;;
62957;SDS011;49056;48.352;10.926;2023-03-14T08:11:48;0.00;;;0.00;;
62957;SDS011;49056;48.352;10.926;2023-03-14T08:17:09;0.00;;;0.00;;
62957;SDS011;49056;48.352;10.926;2023-03-14T08:22:29;0.00;;;0.00;;
62957;SDS011;49056;48.352;10.926;2023-03-14T08:27:49;0.17;;;0.00;;
62957;SDS011;49056;48.352;10.926;2023-03-14T08:33:10;0.00;;;0.00;;
62957;SDS011;49056;48.352;10.926;2023-03-14T08:38:30;0.20;;;0.10;;
62957;SDS011;49056;48.352;10.926;2023-03-14T08:43:50;0.00;;;0.00;;
62957;SDS011;49056;48.352;10.926;2023-03-14T08:49:11;0.00;;;0.00;;
62957;SDS011;49056;48.352;10.926;2023-03-14T08:54:31;0.00;;;0.00;;
62957;SDS011;49056;48.352;10.926;2023-03-14T08:59:52;0.00;;;0.00;;
62957;SDS011;49056;48.352;10.926;2023-03-14T09:05:12;0.00;;;0.00;;
62957;SDS011;49056;48.352;10.926;2023-03-14T09:10:32;0.40;;;0.00;;
62957;SDS011;49056;48.352;10.926;2023-03-14T09:15:53;0.00;;;0.00;;
62957;SDS011;49056;48.352;10.926;2023-03-14T09:21:14;0.00;;;0.00;;
62957;SDS011;49056;48.352;10.926;2023-03-14T09:26:34;0.35;;;0.10;;
62957;SDS011;49056;48.352;10.926;2023-03-14T09:31:54;0.00;;;0.00;;
62957;SDS011;49056;48.352;10.926;2023-03-14T09:37:15;0.37;;;0.10;;
62957;SDS011;49056;48.352;10.926;2023-03-14T09:42:36;0.00;;;0.00;;
62957;SDS011;49056;48.352;10.926;2023-03-14T09:47:58;0.00;;;0.00;;
62957;SDS011;49056;48.352;10.926;2023-03-14T09:53:20;0.00;;;0.00;;
62957;SDS011;49056;48.352;10.926;2023-03-14T09:58:42;0.00;;;0.00;;
62957;SDS011;49056;48.352;10.926;2023-03-14T10:04:06;0.03;;;0.00;;
62957;SDS011;49056;48.352;10.926;2023-03-14T10:09:27;0.47;;;0.00;;
62957;SDS011;49056;48.352;10.926;2023-03-14T10:14:51;0.20;;;0.00;;
62957;SDS011;49056;48.352;10.926;2023-03-14T10:25:59;0.00;;;0.00;;
62957;SDS011;49056;48.352;10.926;2023-03-14T10:31:26;0.00;;;0.00;;
62957;SDS011;49056;48.352;10.926;2023-03-14T10:36:47;0.00;;;0.00;;
62957;SDS011;49056;48.352;10.926;2023-03-14T10:42:13;0.00;;;0.00;;
62957;SDS011;49056;48.352;10.926;2023-03-14T10:47:34;0.10;;;0.10;;
62957;SDS011;49056;48.352;10.926;2023-03-14T10:52:55;0.10;;;0.08;;
62957;SDS011;49056;48.352;10.926;2023-03-14T11:03:39;0.00;;;0.00;;
62957;SDS011;49056;48.352;10.926;2023-03-14T11:09:10;0.45;;;0.03;;
62957;SDS011;49056;48.352;10.926;2023-03-14T11:14:34;0.45;;;0.10;;
62957;SDS011;49056;48.352;10.926;2023-03-14T11:36:59;0.20;;;0.10;;
62957;SDS011;49056;48.352;10.926;2023-03-14T11:42:20;0.00;;;0.00;;
62957;SDS011;49056;48.352;10.926;2023-03-14T11:47:41;0.13;;;0.00;;
62957;SDS011;49056;48.352;10.926;2023-03-14T11:53:04;0.00;;;0.00;;
62957;SDS011;49056;48.352;10.926;2023-03-14T11:58:30;0.10;;;0.10;;
62957;SDS011;49056;48.352;10.926;2023-03-14T12:04:09;0.08;;;0.08;;
62957;SDS011;49056;48.352;10.926;2023-03-14T12:09:32;0.10;;;0.08;;
62957;SDS011;49056;48.352;10.926;2023-03-14T12:14:58;0.17;;;0.08;;
62957;SDS011;49056;48.352;10.926;2023-03-14T12:25:39;0.00;;;0.00;;
62957;SDS011;49056;48.352;10.926;2023-03-14T12:31:35;0.05;;;0.03;;
62957;SDS011;49056;48.352;10.926;2023-03-14T12:36:54;0.10;;;0.10;;
62957;SDS011;49056;48.352;10.926;2023-03-14T12:58:24;0.10;;;0.00;;
62957;SDS011;49056;48.352;10.926;2023-03-14T13:03:50;0.03;;;0.03;;
62957;SDS011;49056;48.352;10.926;2023-03-14T13:14:47;0.20;;;0.03;;
62957;SDS011;49056;48.352;10.926;2023-03-14T13:20:12;0.47;;;0.10;;
62957;SDS011;49056;48.352;10.926;2023-03-14T13:25:35;0.17;;;0.10;;
62957;SDS011;49056;48.352;10.926;2023-03-14T13:30:57;0.10;;;0.00;;
62957;SDS011;49056;48.352;10.926;2023-03-14T13:36:21;0.25;;;0.20;;
62957;SDS011;49056;48.352;10.926;2023-03-14T13:41:42;0.47;;;0.00;;
62957;SDS011;49056;48.352;10.926;2023-03-14T13:47:03;0.10;;;0.03;;
62957;SDS011;49056;48.352;10.926;2023-03-14T13:52:31;0.10;;;0.05;;
62957;SDS011;49056;48.352;10.926;2023-03-14T13:57:52;0.10;;;0.10;;
62957;SDS011;49056;48.352;10.926;2023-03-14T14:03:15;0.00;;;0.00;;
62957;SDS011;49056;48.352;10.926;2023-03-14T14:08:39;0.32;;;0.10;;
62957;SDS011;49056;48.352;10.926;2023-03-14T14:14:00;0.30;;;0.15;;
62957;SDS011;49056;48.352;10.926;2023-03-14T14:19:21;0.00;;;0.00;;
62957;SDS011;49056;48.352;10.926;2023-03-14T14:24:42;0.00;;;0.00;;
62957;SDS011;49056;48.352;10.926;2023-03-14T14:40:48;0.17;;;0.08;;
62957;SDS011;49056;48.352;10.926;2023-03-14T14:46:09;0.82;;;0.20;;
62957;SDS011;49056;48.352;10.926;2023-03-14T14:51:38;0.17;;;0.10;;
62957;SDS011;49056;48.352;10.926;2023-03-14T14:57:01;0.05;;;0.05;;
62957;SDS011;49056;48.352;10.926;2023-03-14T15:07:45;0.47;;;0.10;;
62957;SDS011;49056;48.352;10.926;2023-03-14T15:13:06;0.68;;;0.20;;
62957;SDS011;49056;48.352;10.926;2023-03-14T15:18:27;0.37;;;0.10;;
62957;SDS011;49056;48.352;10.926;2023-03-14T15:23:48;0.32;;;0.00;;
62957;SDS011;49056;48.352;10.926;2023-03-14T15:29:09;0.10;;;0.10;;
62957;SDS011;49056;48.352;10.926;2023-03-14T15:34:32;0.10;;;0.10;;
62957;SDS011;49056;48.352;10.926;2023-03-14T15:39:52;0.62;;;0.20;;
62957;SDS011;49056;48.352;10.926;2023-03-14T15:45:12;0.52;;;0.32;;
62957;SDS011;49056;48.352;10.926;2023-03-14T15:50:32;0.10;;;0.10;;
62957;SDS011;49056;48.352;10.926;2023-03-14T15:55:53;0.00;;;0.00;;
62957;SDS011;49056;48.352;10.926;2023-03-14T16:01:13;0.63;;;0.10;;
62957;SDS011;49056;48.352;10.926;2023-03-14T16:06:35;0.25;;;0.08;;
62957;SDS011;49056;48.352;10.926;2023-03-14T16:11:56;0.45;;;0.20;;
62957;SDS011;49056;48.352;10.926;2023-03-14T16:17:17;0.98;;;0.17;;
62957;SDS011;49056;48.352;10.926;2023-03-14T16:22:37;0.20;;;0.10;;
62957;SDS011;49056;48.352;10.926;2023-03-14T16:27:58;0.25;;;0.20;;
62957;SDS011;49056;48.352;10.926;2023-03-14T16:33:18;1.65;;;0.30;;
62957;SDS011;49056;48.352;10.926;2023-03-14T16:38:39;0.10;;;0.10;;
62957;SDS011;49056;48.352;10.926;2023-03-14T16:44:00;0.10;;;0.10;;
62957;SDS011;49056;48.352;10.926;2023-03-14T16:49:21;0.50;;;0.37;;
62957;SDS011;49056;48.352;10.926;2023-03-14T16:54:41;0.60;;;0.23;;
62957;SDS011;49056;48.352;10.926;2023-03-14T17:00:01;0.10;;;0.10;;
62957;SDS011;49056;48.352;10.926;2023-03-14T17:05:23;0.75;;;0.15;;
62957;SDS011;49056;48.352;10.926;2023-03-14T17:10:44;1.83;;;0.20;;
62957;SDS011;49056;48.352;10.926;2023-03-14T17:16:05;0.10;;;0.10;;
62957;SDS011;49056;48.352;10.926;2023-03-14T17:21:26;0.80;;;0.50;;
62957;SDS011;49056;48.352;10.926;2023-03-14T17:26:46;0.95;;;0.45;;
62957;SDS011;49056;48.352;10.926;2023-03-14T17:32:06;1.20;;;0.50;;
62957;SDS011;49056;48.352;10.926;2023-03-14T17:37:27;0.53;;;0.30;;
62957;SDS011;49056;48.352;10.926;2023-03-14T17:42:47;0.30;;;0.20;;
62957;SDS011;49056;48.352;10.926;2023-03-14T17:48:08;0.40;;;0.33;;
62957;SDS011;49056;48.352;10.926;2023-03-14T17:53:28;0.82;;;0.45;;
62957;SDS011;49056;48.352;10.926;2023-03-14T17:58:49;0.20;;;0.20;;
62957;SDS011;49056;48.352;10.926;2023-03-14T18:04:09;0.88;;;0.40;;
62957;SDS011;49056;48.352;10.926;2023-03-14T18:09:29;0.77;;;0.30;;
62957;SDS011;49056;48.352;10.926;2023-03-14T18:14:50;1.67;;;0.30;;
62957;SDS011;49056;48.352;10.926;2023-03-14T18:20:10;0.45;;;0.20;;
62957;SDS011;49056;48.352;10.926;2023-03-14T18:25:31;0.62;;;0.22;;
62957;SDS011;49056;48.352;10.926;2023-03-14T18:30:52;0.60;;;0.40;;
62957;SDS011;49056;48.352;10.926;2023-03-14T18:36:12;0.70;;;0.50;;
62957;SDS011;49056;48.352;10.926;2023-03-14T18:41:33;0.50;;;0.30;;
62957;SDS011;49056;48.352;10.926;2023-03-14T18:46:54;1.48;;;0.55;;
62957;SDS011;49056;48.352;10.926;2023-03-14T18:52:14;0.97;;;0.30;;
62957;SDS011;49056;48.352;10.926;2023-03-14T18:57:34;0.63;;;0.40;;
62957;SDS011;49056;48.352;10.926;2023-03-14T19:02:55;1.85;;;0.50;;
62957;SDS011;49056;48.352;10.926;2023-03-14T19:08:15;0.73;;;0.32;;
62957;SDS011;49056;48.352;10.926;2023-03-14T19:13:36;0.27;;;0.20;;
62957;SDS011;49056;48.352;10.926;2023-03-14T19:18:56;0.70;;;0.40;;
62957;SDS011;49056;48.352;10.926;2023-03-14T19:24:17;1.48;;;0.50;;
62957;SDS011;49056;48.352;10.926;2023-03-14T19:29:38;0.20;;;0.20;;
62957;SDS011;49056;48.352;10.926;2023-03-14T19:35:01;0.90;;;0.37;;
62957;SDS011;49056;48.352;10.926;2023-03-14T19:40:21;0.60;;;0.40;;
62957;SDS011;49056;48.352;10.926;2023-03-14T19:45:41;0.53;;;0.40;;
62957;SDS011;49056;48.352;10.926;2023-03-14T19:51:02;1.17;;;0.40;;
62957;SDS011;49056;48.352;10.926;2023-03-14T19:56:23;0.40;;;0.22;;
62957;SDS011;49056;48.352;10.926;2023-03-14T20:01:43;0.37;;;0.30;;
62957;SDS011;49056;48.352;10.926;2023-03-14T20:07:08;0.50;;;0.30;;
62957;SDS011;49056;48.352;10.926;2023-03-14T20:12:31;1.30;;;0.30;;
62957;SDS011;49056;48.352;10.926;2023-03-14T20:17:51;0.62;;;0.25;;
62957;SDS011;49056;48.352;10.926;2023-03-14T20:23:12;0.93;;;0.40;;
62957;SDS011;49056;48.352;10.926;2023-03-14T20:28:33;0.35;;;0.22;;
62957;SDS011;49056;48.352;10.926;2023-03-14T20:33:53;1.10;;;0.65;;
62957;SDS011;49056;48.352;10.926;2023-03-14T20:39:14;1.03;;;0.60;;
62957;SDS011;49056;48.352;10.926;2023-03-14T20:44:34;0.50;;;0.37;;
62957;SDS011;49056;48.352;10.926;2023-03-14T20:49:54;0.80;;;0.30;;
62957;SDS011;49056;48.352;10.926;2023-03-14T20:55:15;1.25;;;0.30;;
62957;SDS011;49056;48.352;10.926;2023-03-14T21:00:35;0.37;;;0.25;;
62957;SDS011;49056;48.352;10.926;2023-03-14T21:05:56;0.40;;;0.40;;
62957;SDS011;49056;48.352;10.926;2023-03-14T21:11:17;0.65;;;0.40;;
62957;SDS011;49056;48.352;10.926;2023-03-14T21:16:37;0.47;;;0.28;;
62957;SDS011;49056;48.352;10.926;2023-03-14T21:21:58;1.20;;;0.40;;
62957;SDS011;49056;48.352;10.926;2023-03-14T21:27:19;1.85;;;0.40;;
62957;SDS011;49056;48.352;10.926;2023-03-14T21:32:40;0.70;;;0.35;;
62957;SDS011;49056;48.352;10.926;2023-03-14T21:38:01;0.37;;;0.30;;
62957;SDS011;49056;48.352;10.926;2023-03-14T21:43:22;0.73;;;0.22;;
62957;SDS011;49056;48.352;10.926;2023-03-14T21:48:42;1.55;;;0.37;;
62957;SDS011;49056;48.352;10.926;2023-03-14T21:54:03;1.17;;;0.20;;
62957;SDS011;49056;48.352;10.926;2023-03-14T21:59:29;1.12;;;0.40;;
62957;SDS011;49056;48.352;10.926;2023-03-14T22:04:53;0.30;;;0.22;;
62957;SDS011;49056;48.352;10.926;2023-03-14T22:10:13;0.62;;;0.25;;
62957;SDS011;49056;48.352;10.926;2023-03-14T22:15:34;0.32;;;0.20;;
62957;SDS011;49056;48.352;10.926;2023-03-14T22:20:54;0.40;;;0.17;;
62957;SDS011;49056;48.352;10.926;2023-03-14T22:26:15;0.57;;;0.20;;
62957;SDS011;49056;48.352;10.926;2023-03-14T22:31:36;0.60;;;0.55;;
62957;SDS011;49056;48.352;10.926;2023-03-14T22:36:57;0.73;;;0.30;;
62957;SDS011;49056;48.352;10.926;2023-03-14T22:42:18;0.90;;;0.30;;
62957;SDS011;49056;48.352;10.926;2023-03-14T22:47:38;0.22;;;0.17;;
62957;SDS011;49056;48.352;10.926;2023-03-14T22:52:58;0.65;;;0.22;;
62957;SDS011;49056;48.352;10.926;2023-03-14T22:58:19;0.32;;;0.20;;
62957;SDS011;49056;48.352;10.926;2023-03-14T23:03:39;0.40;;;0.20;;
62957;SDS011;49056;48.352;10.926;2023-03-14T23:09:00;0.32;;;0.10;;
62957;SDS011;49056;48.352;10.926;2023-03-14T23:14:21;0.68;;;0.20;;
62957;SDS011;49056;48.352;10.926;2023-03-14T23:19:42;0.45;;;0.10;;
62957;SDS011;49056;48.352;10.926;2023-03-14T23:25:04;0.28;;;0.20;;
62957;SDS011;49056;48.352;10.926;2023-03-14T23:30:25;0.77;;;0.43;;
62957;SDS011;49056;48.352;10.926;2023-03-14T23:35:45;0.40;;;0.30;;
62957;SDS011;49056;48.352;10.926;2023-03-14T23:41:05;0.30;;;0.17;;
62957;SDS011;49056;48.352;10.926;2023-03-14T23:46:26;0.73;;;0.35;;
62957;SDS011;49056;48.352;10.926;2023-03-14T23:51:47;1.60;;;0.50;;
62957;SDS011;49056;48.352;10.926;2023-03-14T23:57:07;1.07;;;0.30;;
